sensor_id;sensor_type;location;lat;lon;timestamp;P1;durP1;ratioP1;P2;durP2;ratioP2
23608;SDS011;11982;50.810;4.442;2023-07-16T00:00:27;20.88;;;5.78;;
23608;SDS011;11982;50.810;4.442;2023-07-16T00:02:53;20.92;;;6.05;;
23608;SDS011;11982;50.810;4.442;2023-07-16T00:05:19;14.90;;;5.13;;
23608;SDS011;11982;50.810;4.442;2023-07-16T00:07:45;18.50;;;5.70;;
23608;SDS011;11982;50.810;4.442;2023-07-16T00:10:11;16.40;;;5.35;;
23608;SDS011;11982;50.810;4.442;2023-07-16T00:12:36;19.40;;;5.78;;
23608;SDS011;11982;50.810;4.442;2023-07-16T00:15:03;16.85;;;5.43;;
23608;SDS011;11982;50.810;4.442;2023-07-16T00:17:28;16.13;;;5.00;;
23608;SDS011;11982;50.810;4.442;2023-07-16T00:19:54;15.10;;;5.25;;
23608;SDS011;11982;50.810;4.442;2023-07-16T00:22:20;15.15;;;5.07;;
23608;SDS011;11982;50.810;4.442;2023-07-16T00:24:45;21.05;;;5.60;;
23608;SDS011;11982;50.810;4.442;2023-07-16T00:27:11;17.40;;;5.00;;
23608;SDS011;11982;50.810;4.442;2023-07-16T00:29:37;20.95;;;5.45;;
23608;SDS011;11982;50.810;4.442;2023-07-16T00:32:02;18.25;;;5.50;;
23608;SDS011;11982;50.810;4.442;2023-07-16T00:34:28;26.17;;;5.47;;
23608;SDS011;11982;50.810;4.442;2023-07-16T00:36:54;17.58;;;5.05;;
23608;SDS011;11982;50.810;4.442;2023-07-16T00:39:26;19.85;;;5.68;;
23608;SDS011;11982;50.810;4.442;2023-07-16T00:41:52;26.27;;;5.50;;
23608;SDS011;11982;50.810;4.442;2023-07-16T00:44:18;19.08;;;5.43;;
23608;SDS011;11982;50.810;4.442;2023-07-16T00:46:44;12.88;;;5.10;;
23608;SDS011;11982;50.810;4.442;2023-07-16T00:49:09;19.95;;;5.30;;
23608;SDS011;11982;50.810;4.442;2023-07-16T00:51:35;12.88;;;5.00;;
23608;SDS011;11982;50.810;4.442;2023-07-16T00:54:02;20.35;;;4.70;;
23608;SDS011;11982;50.810;4.442;2023-07-16T00:56:27;18.40;;;4.88;;
23608;SDS011;11982;50.810;4.442;2023-07-16T00:58:54;22.92;;;4.80;;
23608;SDS011;11982;50.810;4.442;2023-07-16T01:01:20;18.90;;;4.90;;
23608;SDS011;11982;50.810;4.442;2023-07-16T01:03:45;18.45;;;4.90;;
23608;SDS011;11982;50.810;4.442;2023-07-16T01:08:47;16.65;;;5.07;;
23608;SDS011;11982;50.810;4.442;2023-07-16T01:11:20;17.25;;;5.05;;
23608;SDS011;11982;50.810;4.442;2023-07-16T01:13:47;15.00;;;5.07;;
23608;SDS011;11982;50.810;4.442;2023-07-16T01:16:19;17.27;;;4.72;;
23608;SDS011;11982;50.810;4.442;2023-07-16T01:18:46;17.63;;;5.60;;
23608;SDS011;11982;50.810;4.442;2023-07-16T01:21:12;18.23;;;5.65;;
23608;SDS011;11982;50.810;4.442;2023-07-16T01:26:47;17.13;;;5.18;;
23608;SDS011;11982;50.810;4.442;2023-07-16T01:32:07;20.23;;;6.38;;
23608;SDS011;11982;50.810;4.442;2023-07-16T01:34:36;21.25;;;5.60;;
23608;SDS011;11982;50.810;4.442;2023-07-16T01:37:03;16.80;;;5.30;;
23608;SDS011;11982;50.810;4.442;2023-07-16T01:39:30;14.18;;;5.50;;
23608;SDS011;11982;50.810;4.442;2023-07-16T01:41:59;17.08;;;5.90;;
23608;SDS011;11982;50.810;4.442;2023-07-16T01:44:25;16.95;;;5.43;;
23608;SDS011;11982;50.810;4.442;2023-07-16T01:47:04;19.33;;;6.07;;
23608;SDS011;11982;50.810;4.442;2023-07-16T01:49:49;15.82;;;5.63;;
23608;SDS011;11982;50.810;4.442;2023-07-16T01:52:15;16.70;;;5.50;;
23608;SDS011;11982;50.810;4.442;2023-07-16T01:54:40;19.45;;;5.38;;
23608;SDS011;11982;50.810;4.442;2023-07-16T01:57:06;23.05;;;5.65;;
23608;SDS011;11982;50.810;4.442;2023-07-16T01:59:32;17.05;;;5.60;;
23608;SDS011;11982;50.810;4.442;2023-07-16T02:01:57;18.15;;;5.90;;
23608;SDS011;11982;50.810;4.442;2023-07-16T02:04:23;18.25;;;5.22;;
23608;SDS011;11982;50.810;4.442;2023-07-16T02:06:49;21.33;;;5.78;;
23608;SDS011;11982;50.810;4.442;2023-07-16T02:09:14;17.10;;;5.85;;
23608;SDS011;11982;50.810;4.442;2023-07-16T02:11:40;18.27;;;5.57;;
23608;SDS011;11982;50.810;4.442;2023-07-16T02:14:06;17.88;;;5.63;;
23608;SDS011;11982;50.810;4.442;2023-07-16T02:16:31;18.23;;;6.68;;
23608;SDS011;11982;50.810;4.442;2023-07-16T02:18:57;16.73;;;6.18;;
23608;SDS011;11982;50.810;4.442;2023-07-16T02:21:23;14.85;;;6.25;;
23608;SDS011;11982;50.810;4.442;2023-07-16T02:23:48;18.95;;;6.40;;
23608;SDS011;11982;50.810;4.442;2023-07-16T02:26:14;16.80;;;6.88;;
23608;SDS011;11982;50.810;4.442;2023-07-16T02:28:39;21.25;;;8.10;;
23608;SDS011;11982;50.810;4.442;2023-07-16T02:31:05;22.17;;;8.38;;
23608;SDS011;11982;50.810;4.442;2023-07-16T02:33:31;22.63;;;7.40;;
23608;SDS011;11982;50.810;4.442;2023-07-16T02:35:57;16.75;;;8.13;;
23608;SDS011;11982;50.810;4.442;2023-07-16T02:38:22;17.63;;;7.60;;
23608;SDS011;11982;50.810;4.442;2023-07-16T02:40:48;17.52;;;7.47;;
23608;SDS011;11982;50.810;4.442;2023-07-16T02:43:14;25.38;;;8.38;;
23608;SDS011;11982;50.810;4.442;2023-07-16T02:45:40;23.42;;;7.60;;
23608;SDS011;11982;50.810;4.442;2023-07-16T02:48:06;26.25;;;9.23;;
23608;SDS011;11982;50.810;4.442;2023-07-16T02:50:36;18.83;;;7.93;;
23608;SDS011;11982;50.810;4.442;2023-07-16T02:53:05;18.25;;;8.45;;
23608;SDS011;11982;50.810;4.442;2023-07-16T02:55:32;15.57;;;6.95;;
23608;SDS011;11982;50.810;4.442;2023-07-16T02:57:59;19.08;;;6.82;;
23608;SDS011;11982;50.810;4.442;2023-07-16T03:00:29;17.70;;;6.32;;
23608;SDS011;11982;50.810;4.442;2023-07-16T03:02:55;20.42;;;6.75;;
23608;SDS011;11982;50.810;4.442;2023-07-16T03:05:21;21.67;;;7.68;;
23608;SDS011;11982;50.810;4.442;2023-07-16T03:07:46;21.85;;;7.30;;
23608;SDS011;11982;50.810;4.442;2023-07-16T03:10:12;20.67;;;7.18;;
23608;SDS011;11982;50.810;4.442;2023-07-16T03:12:38;18.77;;;7.60;;
23608;SDS011;11982;50.810;4.442;2023-07-16T03:15:03;17.77;;;6.68;;
23608;SDS011;11982;50.810;4.442;2023-07-16T03:17:29;21.95;;;7.30;;
23608;SDS011;11982;50.810;4.442;2023-07-16T03:19:55;19.10;;;6.93;;
23608;SDS011;11982;50.810;4.442;2023-07-16T03:22:20;19.95;;;7.30;;
23608;SDS011;11982;50.810;4.442;2023-07-16T03:24:46;21.15;;;6.78;;
23608;SDS011;11982;50.810;4.442;2023-07-16T03:27:12;17.08;;;6.38;;
23608;SDS011;11982;50.810;4.442;2023-07-16T03:29:37;19.88;;;7.50;;
23608;SDS011;11982;50.810;4.442;2023-07-16T03:32:03;19.75;;;6.95;;
23608;SDS011;11982;50.810;4.442;2023-07-16T03:34:29;15.50;;;7.07;;
23608;SDS011;11982;50.810;4.442;2023-07-16T03:36:55;21.42;;;7.68;;
23608;SDS011;11982;50.810;4.442;2023-07-16T03:39:20;27.73;;;6.70;;
23608;SDS011;11982;50.810;4.442;2023-07-16T03:41:46;18.60;;;6.90;;
23608;SDS011;11982;50.810;4.442;2023-07-16T03:44:12;27.25;;;8.13;;
23608;SDS011;11982;50.810;4.442;2023-07-16T03:46:37;21.40;;;8.57;;
23608;SDS011;11982;50.810;4.442;2023-07-16T03:49:03;18.05;;;8.45;;
23608;SDS011;11982;50.810;4.442;2023-07-16T03:51:33;23.48;;;8.20;;
23608;SDS011;11982;50.810;4.442;2023-07-16T03:53:58;22.50;;;8.18;;
23608;SDS011;11982;50.810;4.442;2023-07-16T03:56:24;17.80;;;7.30;;
23608;SDS011;11982;50.810;4.442;2023-07-16T03:58:50;19.13;;;7.80;;
23608;SDS011;11982;50.810;4.442;2023-07-16T04:01:15;16.52;;;7.20;;
23608;SDS011;11982;50.810;4.442;2023-07-16T04:03:41;19.98;;;7.60;;
23608;SDS011;11982;50.810;4.442;2023-07-16T04:06:08;27.55;;;8.18;;
23608;SDS011;11982;50.810;4.442;2023-07-16T04:08:34;22.52;;;8.07;;
23608;SDS011;11982;50.810;4.442;2023-07-16T04:11:01;22.65;;;8.38;;
23608;SDS011;11982;50.810;4.442;2023-07-16T04:13:28;18.27;;;8.25;;
23608;SDS011;11982;50.810;4.442;2023-07-16T04:15:53;17.67;;;8.23;;
23608;SDS011;11982;50.810;4.442;2023-07-16T04:18:26;21.55;;;8.52;;
23608;SDS011;11982;50.810;4.442;2023-07-16T04:20:52;15.48;;;7.78;;
23608;SDS011;11982;50.810;4.442;2023-07-16T04:23:18;16.92;;;8.10;;
23608;SDS011;11982;50.810;4.442;2023-07-16T04:25:45;21.60;;;7.70;;
23608;SDS011;11982;50.810;4.442;2023-07-16T04:28:11;18.00;;;7.20;;
23608;SDS011;11982;50.810;4.442;2023-07-16T04:30:37;24.52;;;7.72;;
23608;SDS011;11982;50.810;4.442;2023-07-16T04:33:03;25.45;;;8.32;;
23608;SDS011;11982;50.810;4.442;2023-07-16T04:35:29;19.08;;;7.40;;
23608;SDS011;11982;50.810;4.442;2023-07-16T04:37:55;17.15;;;8.07;;
23608;SDS011;11982;50.810;4.442;2023-07-16T04:40:21;20.17;;;8.52;;
23608;SDS011;11982;50.810;4.442;2023-07-16T04:42:46;22.00;;;8.52;;
23608;SDS011;11982;50.810;4.442;2023-07-16T04:45:12;24.08;;;8.38;;
23608;SDS011;11982;50.810;4.442;2023-07-16T04:47:38;24.23;;;8.82;;
23608;SDS011;11982;50.810;4.442;2023-07-16T04:50:04;22.17;;;8.50;;
23608;SDS011;11982;50.810;4.442;2023-07-16T04:52:30;19.73;;;8.13;;
23608;SDS011;11982;50.810;4.442;2023-07-16T04:54:56;18.85;;;9.05;;
23608;SDS011;11982;50.810;4.442;2023-07-16T04:57:21;21.35;;;8.88;;
23608;SDS011;11982;50.810;4.442;2023-07-16T04:59:47;19.38;;;9.13;;
23608;SDS011;11982;50.810;4.442;2023-07-16T05:02:13;22.85;;;9.68;;
23608;SDS011;11982;50.810;4.442;2023-07-16T05:04:41;19.75;;;9.65;;
23608;SDS011;11982;50.810;4.442;2023-07-16T05:07:09;30.48;;;9.60;;
23608;SDS011;11982;50.810;4.442;2023-07-16T05:09:35;24.55;;;9.25;;
23608;SDS011;11982;50.810;4.442;2023-07-16T05:12:00;21.08;;;9.35;;
23608;SDS011;11982;50.810;4.442;2023-07-16T05:14:27;30.58;;;10.48;;
23608;SDS011;11982;50.810;4.442;2023-07-16T05:16:54;20.58;;;9.52;;
23608;SDS011;11982;50.810;4.442;2023-07-16T05:19:22;23.77;;;9.25;;
23608;SDS011;11982;50.810;4.442;2023-07-16T05:21:48;23.52;;;10.50;;
23608;SDS011;11982;50.810;4.442;2023-07-16T05:24:14;26.23;;;10.55;;
23608;SDS011;11982;50.810;4.442;2023-07-16T05:26:39;26.40;;;9.68;;
23608;SDS011;11982;50.810;4.442;2023-07-16T05:29:05;23.63;;;10.07;;
23608;SDS011;11982;50.810;4.442;2023-07-16T05:31:30;19.20;;;9.38;;
23608;SDS011;11982;50.810;4.442;2023-07-16T05:33:56;22.50;;;9.55;;
23608;SDS011;11982;50.810;4.442;2023-07-16T05:36:22;19.23;;;9.60;;
23608;SDS011;11982;50.810;4.442;2023-07-16T05:38:48;17.67;;;8.40;;
23608;SDS011;11982;50.810;4.442;2023-07-16T05:41:13;21.50;;;10.27;;
23608;SDS011;11982;50.810;4.442;2023-07-16T05:43:39;28.13;;;10.55;;
23608;SDS011;11982;50.810;4.442;2023-07-16T05:46:05;25.98;;;9.73;;
23608;SDS011;11982;50.810;4.442;2023-07-16T05:48:31;21.67;;;10.45;;
23608;SDS011;11982;50.810;4.442;2023-07-16T05:50:57;21.77;;;10.52;;
23608;SDS011;11982;50.810;4.442;2023-07-16T05:53:22;23.95;;;9.95;;
23608;SDS011;11982;50.810;4.442;2023-07-16T05:55:48;21.63;;;9.88;;
23608;SDS011;11982;50.810;4.442;2023-07-16T05:58:17;31.00;;;9.73;;
23608;SDS011;11982;50.810;4.442;2023-07-16T06:00:43;26.17;;;10.30;;
23608;SDS011;11982;50.810;4.442;2023-07-16T06:03:08;19.10;;;10.02;;
23608;SDS011;11982;50.810;4.442;2023-07-16T06:05:34;26.45;;;10.18;;
23608;SDS011;11982;50.810;4.442;2023-07-16T06:08:01;20.25;;;9.38;;
23608;SDS011;11982;50.810;4.442;2023-07-16T06:10:27;27.08;;;10.63;;
23608;SDS011;11982;50.810;4.442;2023-07-16T06:12:53;25.40;;;10.00;;
23608;SDS011;11982;50.810;4.442;2023-07-16T06:15:19;25.20;;;8.68;;
23608;SDS011;11982;50.810;4.442;2023-07-16T06:17:44;22.63;;;9.75;;
23608;SDS011;11982;50.810;4.442;2023-07-16T06:20:10;26.42;;;10.30;;
23608;SDS011;11982;50.810;4.442;2023-07-16T06:22:36;22.65;;;9.98;;
23608;SDS011;11982;50.810;4.442;2023-07-16T06:25:02;27.70;;;10.40;;
23608;SDS011;11982;50.810;4.442;2023-07-16T06:27:29;24.58;;;10.57;;
23608;SDS011;11982;50.810;4.442;2023-07-16T06:29:55;28.95;;;10.40;;
23608;SDS011;11982;50.810;4.442;2023-07-16T06:32:21;24.75;;;10.50;;
23608;SDS011;11982;50.810;4.442;2023-07-16T06:34:46;24.08;;;10.15;;
23608;SDS011;11982;50.810;4.442;2023-07-16T06:37:12;24.83;;;10.90;;
23608;SDS011;11982;50.810;4.442;2023-07-16T06:39:38;22.23;;;10.45;;
23608;SDS011;11982;50.810;4.442;2023-07-16T06:42:03;24.90;;;11.02;;
23608;SDS011;11982;50.810;4.442;2023-07-16T06:44:29;25.17;;;9.18;;
23608;SDS011;11982;50.810;4.442;2023-07-16T06:46:55;20.42;;;9.82;;
23608;SDS011;11982;50.810;4.442;2023-07-16T06:49:22;24.58;;;9.73;;
23608;SDS011;11982;50.810;4.442;2023-07-16T06:51:48;19.25;;;9.73;;
23608;SDS011;11982;50.810;4.442;2023-07-16T06:54:14;22.73;;;8.98;;
23608;SDS011;11982;50.810;4.442;2023-07-16T06:56:39;26.42;;;10.43;;
23608;SDS011;11982;50.810;4.442;2023-07-16T06:59:05;21.85;;;9.23;;
23608;SDS011;11982;50.810;4.442;2023-07-16T07:01:31;23.52;;;10.75;;
23608;SDS011;11982;50.810;4.442;2023-07-16T07:03:56;19.02;;;9.90;;
23608;SDS011;11982;50.810;4.442;2023-07-16T07:06:22;26.75;;;10.18;;
23608;SDS011;11982;50.810;4.442;2023-07-16T07:08:48;23.75;;;10.55;;
23608;SDS011;11982;50.810;4.442;2023-07-16T07:11:13;22.33;;;10.18;;
23608;SDS011;11982;50.810;4.442;2023-07-16T07:13:39;25.17;;;10.23;;
23608;SDS011;11982;50.810;4.442;2023-07-16T07:16:05;23.70;;;10.40;;
23608;SDS011;11982;50.810;4.442;2023-07-16T07:18:30;29.35;;;10.63;;
23608;SDS011;11982;50.810;4.442;2023-07-16T07:20:56;31.15;;;10.85;;
23608;SDS011;11982;50.810;4.442;2023-07-16T07:23:22;22.98;;;10.15;;
23608;SDS011;11982;50.810;4.442;2023-07-16T07:25:51;24.55;;;10.23;;
23608;SDS011;11982;50.810;4.442;2023-07-16T07:28:17;20.60;;;9.85;;
23608;SDS011;11982;50.810;4.442;2023-07-16T07:30:44;28.45;;;10.45;;
23608;SDS011;11982;50.810;4.442;2023-07-16T07:33:09;24.10;;;10.25;;
23608;SDS011;11982;50.810;4.442;2023-07-16T07:35:35;23.90;;;10.23;;
23608;SDS011;11982;50.810;4.442;2023-07-16T07:38:01;22.00;;;9.95;;
23608;SDS011;11982;50.810;4.442;2023-07-16T07:40:27;31.90;;;11.10;;
23608;SDS011;11982;50.810;4.442;2023-07-16T07:42:52;24.25;;;10.23;;
23608;SDS011;11982;50.810;4.442;2023-07-16T07:45:18;20.00;;;9.63;;
23608;SDS011;11982;50.810;4.442;2023-07-16T07:47:44;20.75;;;9.85;;
23608;SDS011;11982;50.810;4.442;2023-07-16T07:50:09;19.45;;;9.95;;
23608;SDS011;11982;50.810;4.442;2023-07-16T07:52:35;21.35;;;9.07;;
23608;SDS011;11982;50.810;4.442;2023-07-16T07:55:01;28.55;;;9.88;;
23608;SDS011;11982;50.810;4.442;2023-07-16T07:57:27;26.73;;;10.55;;
23608;SDS011;11982;50.810;4.442;2023-07-16T07:59:52;21.38;;;9.55;;
23608;SDS011;11982;50.810;4.442;2023-07-16T08:02:22;26.25;;;10.82;;
23608;SDS011;11982;50.810;4.442;2023-07-16T08:04:50;24.30;;;9.82;;
23608;SDS011;11982;50.810;4.442;2023-07-16T08:07:19;23.38;;;10.18;;
23608;SDS011;11982;50.810;4.442;2023-07-16T08:09:45;19.00;;;9.60;;
23608;SDS011;11982;50.810;4.442;2023-07-16T08:12:12;22.02;;;9.77;;
23608;SDS011;11982;50.810;4.442;2023-07-16T08:14:38;17.00;;;8.43;;
23608;SDS011;11982;50.810;4.442;2023-07-16T08:17:04;25.38;;;9.38;;
23608;SDS011;11982;50.810;4.442;2023-07-16T08:19:30;23.42;;;9.02;;
23608;SDS011;11982;50.810;4.442;2023-07-16T08:21:56;21.25;;;9.55;;
23608;SDS011;11982;50.810;4.442;2023-07-16T08:24:21;20.00;;;8.50;;
23608;SDS011;11982;50.810;4.442;2023-07-16T08:26:47;17.92;;;9.13;;
23608;SDS011;11982;50.810;4.442;2023-07-16T08:29:12;25.40;;;9.27;;
23608;SDS011;11982;50.810;4.442;2023-07-16T08:31:38;21.35;;;9.13;;
23608;SDS011;11982;50.810;4.442;2023-07-16T08:34:05;19.05;;;9.35;;
23608;SDS011;11982;50.810;4.442;2023-07-16T08:36:32;19.70;;;8.43;;
23608;SDS011;11982;50.810;4.442;2023-07-16T08:38:58;17.95;;;8.52;;
23608;SDS011;11982;50.810;4.442;2023-07-16T08:41:23;18.75;;;9.35;;
23608;SDS011;11982;50.810;4.442;2023-07-16T08:43:49;21.65;;;8.95;;
23608;SDS011;11982;50.810;4.442;2023-07-16T08:46:16;17.15;;;8.48;;
23608;SDS011;11982;50.810;4.442;2023-07-16T08:48:42;17.65;;;7.60;;
23608;SDS011;11982;50.810;4.442;2023-07-16T08:51:09;19.85;;;8.43;;
23608;SDS011;11982;50.810;4.442;2023-07-16T08:53:36;13.98;;;7.68;;
23608;SDS011;11982;50.810;4.442;2023-07-16T08:56:02;18.35;;;8.27;;
23608;SDS011;11982;50.810;4.442;2023-07-16T08:58:30;21.05;;;8.60;;
23608;SDS011;11982;50.810;4.442;2023-07-16T09:00:56;16.55;;;7.25;;
23608;SDS011;11982;50.810;4.442;2023-07-16T09:03:23;17.95;;;8.75;;
23608;SDS011;11982;50.810;4.442;2023-07-16T09:05:49;17.63;;;7.50;;
23608;SDS011;11982;50.810;4.442;2023-07-16T09:08:14;20.00;;;8.80;;
23608;SDS011;11982;50.810;4.442;2023-07-16T09:10:41;23.67;;;8.68;;
23608;SDS011;11982;50.810;4.442;2023-07-16T09:13:07;17.85;;;8.73;;
23608;SDS011;11982;50.810;4.442;2023-07-16T09:15:32;16.40;;;8.10;;
23608;SDS011;11982;50.810;4.442;2023-07-16T09:18:02;17.25;;;7.75;;
23608;SDS011;11982;50.810;4.442;2023-07-16T09:20:29;17.92;;;8.55;;
23608;SDS011;11982;50.810;4.442;2023-07-16T09:22:56;15.95;;;7.68;;
23608;SDS011;11982;50.810;4.442;2023-07-16T09:25:28;21.27;;;7.82;;
23608;SDS011;11982;50.810;4.442;2023-07-16T09:27:55;15.93;;;8.57;;
23608;SDS011;11982;50.810;4.442;2023-07-16T09:30:22;17.67;;;8.07;;
23608;SDS011;11982;50.810;4.442;2023-07-16T09:32:48;18.35;;;8.25;;
23608;SDS011;11982;50.810;4.442;2023-07-16T09:35:14;15.15;;;8.15;;
23608;SDS011;11982;50.810;4.442;2023-07-16T09:37:41;16.00;;;7.57;;
23608;SDS011;11982;50.810;4.442;2023-07-16T09:40:08;16.60;;;7.35;;
23608;SDS011;11982;50.810;4.442;2023-07-16T09:42:40;17.30;;;7.60;;
23608;SDS011;11982;50.810;4.442;2023-07-16T09:45:07;13.50;;;7.47;;
23608;SDS011;11982;50.810;4.442;2023-07-16T09:47:36;14.40;;;7.85;;
23608;SDS011;11982;50.810;4.442;2023-07-16T09:50:02;17.80;;;7.63;;
23608;SDS011;11982;50.810;4.442;2023-07-16T09:52:32;17.15;;;7.25;;
23608;SDS011;11982;50.810;4.442;2023-07-16T09:54:59;18.83;;;7.13;;
23608;SDS011;11982;50.810;4.442;2023-07-16T09:57:28;17.23;;;6.68;;
23608;SDS011;11982;50.810;4.442;2023-07-16T09:59:59;17.42;;;6.63;;
23608;SDS011;11982;50.810;4.442;2023-07-16T10:02:30;13.57;;;6.90;;
23608;SDS011;11982;50.810;4.442;2023-07-16T10:05:18;14.10;;;6.45;;
23608;SDS011;11982;50.810;4.442;2023-07-16T10:07:52;13.82;;;6.10;;
23608;SDS011;11982;50.810;4.442;2023-07-16T10:10:37;15.73;;;6.00;;
23608;SDS011;11982;50.810;4.442;2023-07-16T10:13:06;12.48;;;5.68;;
23608;SDS011;11982;50.810;4.442;2023-07-16T10:15:32;17.35;;;6.65;;
23608;SDS011;11982;50.810;4.442;2023-07-16T10:17:58;11.73;;;6.38;;
23608;SDS011;11982;50.810;4.442;2023-07-16T10:20:31;11.77;;;5.65;;
23608;SDS011;11982;50.810;4.442;2023-07-16T10:22:58;16.15;;;6.10;;
23608;SDS011;11982;50.810;4.442;2023-07-16T10:25:36;13.50;;;5.90;;
23608;SDS011;11982;50.810;4.442;2023-07-16T10:28:02;13.63;;;6.22;;
23608;SDS011;11982;50.810;4.442;2023-07-16T10:30:28;14.98;;;6.72;;
23608;SDS011;11982;50.810;4.442;2023-07-16T10:32:55;16.35;;;6.72;;
23608;SDS011;11982;50.810;4.442;2023-07-16T10:35:20;16.10;;;6.82;;
23608;SDS011;11982;50.810;4.442;2023-07-16T10:37:46;14.88;;;7.03;;
23608;SDS011;11982;50.810;4.442;2023-07-16T10:40:13;12.85;;;5.97;;
23608;SDS011;11982;50.810;4.442;2023-07-16T10:42:43;16.40;;;6.78;;
23608;SDS011;11982;50.810;4.442;2023-07-16T10:45:09;15.02;;;6.35;;
23608;SDS011;11982;50.810;4.442;2023-07-16T10:47:39;14.38;;;6.80;;
23608;SDS011;11982;50.810;4.442;2023-07-16T10:50:18;18.33;;;7.28;;
23608;SDS011;11982;50.810;4.442;2023-07-16T10:52:44;14.85;;;7.30;;
23608;SDS011;11982;50.810;4.442;2023-07-16T10:55:10;16.92;;;7.03;;
23608;SDS011;11982;50.810;4.442;2023-07-16T10:57:35;16.48;;;7.07;;
23608;SDS011;11982;50.810;4.442;2023-07-16T11:00:01;11.73;;;5.78;;
23608;SDS011;11982;50.810;4.442;2023-07-16T11:02:28;12.60;;;6.40;;
23608;SDS011;11982;50.810;4.442;2023-07-16T11:04:54;15.40;;;6.30;;
23608;SDS011;11982;50.810;4.442;2023-07-16T11:07:22;11.02;;;6.10;;
23608;SDS011;11982;50.810;4.442;2023-07-16T11:09:49;13.38;;;5.63;;
23608;SDS011;11982;50.810;4.442;2023-07-16T11:12:18;14.32;;;6.00;;
23608;SDS011;11982;50.810;4.442;2023-07-16T11:14:48;13.75;;;6.30;;
23608;SDS011;11982;50.810;4.442;2023-07-16T11:17:18;11.93;;;6.03;;
23608;SDS011;11982;50.810;4.442;2023-07-16T11:19:47;14.95;;;5.97;;
23608;SDS011;11982;50.810;4.442;2023-07-16T11:22:14;11.90;;;5.80;;
23608;SDS011;11982;50.810;4.442;2023-07-16T11:27:06;12.80;;;6.18;;
23608;SDS011;11982;50.810;4.442;2023-07-16T11:29:45;14.38;;;5.88;;
23608;SDS011;11982;50.810;4.442;2023-07-16T11:32:31;14.38;;;6.15;;
23608;SDS011;11982;50.810;4.442;2023-07-16T11:35:01;12.45;;;6.22;;
23608;SDS011;11982;50.810;4.442;2023-07-16T11:37:30;16.92;;;6.70;;
23608;SDS011;11982;50.810;4.442;2023-07-16T11:39:58;11.63;;;5.68;;
23608;SDS011;11982;50.810;4.442;2023-07-16T11:42:34;14.35;;;6.40;;
23608;SDS011;11982;50.810;4.442;2023-07-16T11:45:05;14.32;;;6.47;;
23608;SDS011;11982;50.810;4.442;2023-07-16T11:47:40;15.07;;;6.38;;
23608;SDS011;11982;50.810;4.442;2023-07-16T11:50:05;13.38;;;6.30;;
23608;SDS011;11982;50.810;4.442;2023-07-16T11:52:32;17.83;;;7.00;;
23608;SDS011;11982;50.810;4.442;2023-07-16T11:54:58;14.90;;;6.25;;
23608;SDS011;11982;50.810;4.442;2023-07-16T11:57:29;13.40;;;6.25;;
23608;SDS011;11982;50.810;4.442;2023-07-16T11:59:55;14.82;;;6.70;;
23608;SDS011;11982;50.810;4.442;2023-07-16T12:02:21;13.02;;;5.53;;
23608;SDS011;11982;50.810;4.442;2023-07-16T12:04:48;12.77;;;5.70;;
23608;SDS011;11982;50.810;4.442;2023-07-16T12:07:14;15.27;;;5.88;;
23608;SDS011;11982;50.810;4.442;2023-07-16T12:09:39;14.75;;;6.18;;
23608;SDS011;11982;50.810;4.442;2023-07-16T12:12:05;12.18;;;6.20;;
23608;SDS011;11982;50.810;4.442;2023-07-16T12:14:31;14.07;;;5.50;;
23608;SDS011;11982;50.810;4.442;2023-07-16T12:16:57;15.10;;;5.78;;
23608;SDS011;11982;50.810;4.442;2023-07-16T12:19:24;11.98;;;5.43;;
23608;SDS011;11982;50.810;4.442;2023-07-16T12:21:50;11.15;;;5.32;;
23608;SDS011;11982;50.810;4.442;2023-07-16T12:24:16;14.88;;;6.03;;
23608;SDS011;11982;50.810;4.442;2023-07-16T12:26:42;8.93;;;5.40;;
23608;SDS011;11982;50.810;4.442;2023-07-16T12:29:07;12.50;;;5.63;;
23608;SDS011;11982;50.810;4.442;2023-07-16T12:31:33;12.50;;;5.97;;
23608;SDS011;11982;50.810;4.442;2023-07-16T12:33:59;10.70;;;4.75;;
23608;SDS011;11982;50.810;4.442;2023-07-16T12:36:29;11.10;;;5.20;;
23608;SDS011;11982;50.810;4.442;2023-07-16T12:38:55;11.57;;;5.25;;
23608;SDS011;11982;50.810;4.442;2023-07-16T12:41:20;12.85;;;5.03;;
23608;SDS011;11982;50.810;4.442;2023-07-16T12:43:46;10.68;;;5.03;;
23608;SDS011;11982;50.810;4.442;2023-07-16T12:46:12;13.73;;;5.00;;
23608;SDS011;11982;50.810;4.442;2023-07-16T12:48:38;11.75;;;4.68;;
23608;SDS011;11982;50.810;4.442;2023-07-16T12:51:04;11.63;;;5.78;;
23608;SDS011;11982;50.810;4.442;2023-07-16T12:53:30;11.98;;;5.70;;
23608;SDS011;11982;50.810;4.442;2023-07-16T12:55:55;12.75;;;5.72;;
23608;SDS011;11982;50.810;4.442;2023-07-16T12:58:21;12.65;;;4.60;;
23608;SDS011;11982;50.810;4.442;2023-07-16T13:00:47;11.13;;;5.10;;
23608;SDS011;11982;50.810;4.442;2023-07-16T13:03:13;9.38;;;4.68;;
23608;SDS011;11982;50.810;4.442;2023-07-16T13:05:41;8.50;;;4.65;;
23608;SDS011;11982;50.810;4.442;2023-07-16T13:08:08;10.85;;;4.97;;
23608;SDS011;11982;50.810;4.442;2023-07-16T13:10:34;8.40;;;4.10;;
23608;SDS011;11982;50.810;4.442;2023-07-16T13:13:00;12.23;;;5.03;;
23608;SDS011;11982;50.810;4.442;2023-07-16T13:15:25;9.65;;;4.65;;
23608;SDS011;11982;50.810;4.442;2023-07-16T13:17:51;10.07;;;4.93;;
23608;SDS011;11982;50.810;4.442;2023-07-16T13:20:17;9.65;;;4.78;;
23608;SDS011;11982;50.810;4.442;2023-07-16T13:22:45;11.52;;;5.18;;
23608;SDS011;11982;50.810;4.442;2023-07-16T13:25:10;7.97;;;4.60;;
23608;SDS011;11982;50.810;4.442;2023-07-16T13:27:36;9.02;;;4.57;;
23608;SDS011;11982;50.810;4.442;2023-07-16T13:30:02;11.02;;;4.40;;
23608;SDS011;11982;50.810;4.442;2023-07-16T13:32:29;9.30;;;4.03;;
23608;SDS011;11982;50.810;4.442;2023-07-16T13:34:55;11.95;;;4.88;;
23608;SDS011;11982;50.810;4.442;2023-07-16T13:37:20;8.02;;;4.15;;
23608;SDS011;11982;50.810;4.442;2023-07-16T13:39:46;10.15;;;4.65;;
23608;SDS011;11982;50.810;4.442;2023-07-16T13:42:12;8.30;;;4.45;;
23608;SDS011;11982;50.810;4.442;2023-07-16T13:44:37;11.02;;;4.70;;
23608;SDS011;11982;50.810;4.442;2023-07-16T13:47:03;8.10;;;4.65;;
23608;SDS011;11982;50.810;4.442;2023-07-16T13:49:29;10.95;;;5.03;;
23608;SDS011;11982;50.810;4.442;2023-07-16T13:51:55;7.95;;;4.40;;
23608;SDS011;11982;50.810;4.442;2023-07-16T13:54:21;11.35;;;4.65;;
23608;SDS011;11982;50.810;4.442;2023-07-16T13:56:47;7.50;;;4.03;;
23608;SDS011;11982;50.810;4.442;2023-07-16T13:59:13;9.90;;;4.18;;
23608;SDS011;11982;50.810;4.442;2023-07-16T14:01:40;6.38;;;3.20;;
23608;SDS011;11982;50.810;4.442;2023-07-16T14:04:06;5.90;;;2.97;;
23608;SDS011;11982;50.810;4.442;2023-07-16T14:06:32;8.35;;;3.42;;
23608;SDS011;11982;50.810;4.442;2023-07-16T14:08:58;7.75;;;3.40;;
23608;SDS011;11982;50.810;4.442;2023-07-16T14:11:24;6.47;;;2.92;;
23608;SDS011;11982;50.810;4.442;2023-07-16T14:13:49;6.47;;;3.22;;
23608;SDS011;11982;50.810;4.442;2023-07-16T14:16:22;8.55;;;3.45;;
23608;SDS011;11982;50.810;4.442;2023-07-16T14:18:49;6.95;;;3.00;;
23608;SDS011;11982;50.810;4.442;2023-07-16T14:21:17;6.80;;;3.00;;
23608;SDS011;11982;50.810;4.442;2023-07-16T14:23:43;8.20;;;3.10;;
23608;SDS011;11982;50.810;4.442;2023-07-16T14:26:09;9.00;;;3.35;;
23608;SDS011;11982;50.810;4.442;2023-07-16T14:28:35;7.32;;;4.03;;
23608;SDS011;11982;50.810;4.442;2023-07-16T14:31:00;7.80;;;3.70;;
23608;SDS011;11982;50.810;4.442;2023-07-16T14:33:26;14.20;;;4.15;;
23608;SDS011;11982;50.810;4.442;2023-07-16T14:35:52;8.25;;;4.28;;
23608;SDS011;11982;50.810;4.442;2023-07-16T14:38:18;11.15;;;4.25;;
23608;SDS011;11982;50.810;4.442;2023-07-16T14:40:44;7.07;;;3.88;;